Aeroporto :
LOGIN :

Iscrizione | Disclaimer

   EN    FR    IT 

 










Sommario :    VFR   VFR Marginale   IFR   IFR Intensivo   IFR Molto Intensivo
Visibilità : 
Base nubi : 
>= 8 km
>= 3000ft
5 / 8 km
1000 / 3000 ft
1500m / 5 km
500 / 1000 ft
800 / 1500m
200 / 500 ft
< 800m
< 200 ft
Simboli :   Temporali  Nebbia  Neve Forte  Precipitazioni Forti  Vento > 20 kt
SIGMETs :   Varie  Temporali  Ghiacco  Turbolenza  Onda orograficha  Ceneri Vulcaniche






- Altitudine del aeroporto : 375 ft
- Codice IATA : MST


EHBK - Maastricht Aachen

ULTIMO METAR :
  • 081855Z AUTO 04002KT 9999 NCD 18/04 Q1022 NOSIG

METARs OBSOLETI :
  • 081825Z AUTO 03003KT 9999 NCD 20/04 Q1022 NOSIG
  • 081755Z AUTO 03002KT 9999 NCD 20/05 Q1022 NOSIG
  • 081725Z AUTO 34004KT 310V010 9999 NCD 22/05 Q1022 NOSIG
  • 081655Z AUTO 35005KT 300V020 9999 NCD 22/04 Q1022 NOSIG
  • 081625Z AUTO 06004KT 9999 NSC 23/05 Q1022 NOSIG

TAF TAF EHBK
Valido dal 08 a 18 ore il 10 a 00 ore UTC


081715Z 0818/0924 VRB03KT CAVOK
BECMG 0912/0915 03010KT
BECMG 0918/0921 06007KT



MetMap, La meteo Aeronautica in un colpo d'occhio ! - Copyright ORBIFLY Dicembre 2007 - Disclaimer

ORBIFLY MET'MAP TEAM :

Programmazione e sviluppo : Alexandra Zaïnal
Concezione : Baudouin d'Aumeries
Aiuto per la programmazione : Marc-Olivier Méhu
Supporto tecnico e logistico : Manuel Goepfert
Aiuto per la traduzione : Arnaldo La Scala

Contatto : metmap@orbifly.com




FONTI E CREDITI :

   NOAA